Detall de PIREP

Printer-friendly versionPDF version

[2011/05/14 17:48:00]
Flight IATA:CT1022
Pilot Number:042
Company ICAO:CAT
Aircraft Type:B738/F
PAX:0
Departing Airport: LPAZ
Destination Airport: LEBL
Alternate Airport:LEPA
Online: VATSIM
Route:DOKAS DCT 3820N DCT KOMUT DCT BUSEN DCT MAGUM DCT PORLI UN870 PONEN UW800 CASPE
Flight Level:F360
No Slew and time accel
No pause
Crash detect
Detect pilot in Cockpit between each 30 and 45 minutes
17:48 Zero fuel Weight: 118700 Lbs, Fuel Weight: 45802 Lbs
17:48 VATSIM:LPAZ 141730Z 05015KT 9999 BKN017 BKN020 16/11 Q1025
17:48 VATSIM:LEBL 141730Z 13005KT 070V170 9999 -RA VCTS FEW015 FEW022CB 20/17 Q1018 TEMPO TSRA
17:48 VOICE CATALONIAN/BOEING TRANSPORT
17:54 Parking Brakes off
18:02 Take-off
18:02 Take off Weight: 163299 Lbs
18:02 Wind: 062 @ 015 Knots Heading: 353
18:02 POS N36 59 20 W025 10 25
18:02 Gear Up: 181 Knots
18:02 Flaps:4 at 181 Knots
18:02 Flaps:3at 184 Knots
18:03 Flaps:2 at 173 Knots
18:04 Flaps:1 at 205 Knots
18:04 Flaps:0 at 220 Knots
18:17 Wind:024@023 Knots Heading: 077 Ground Speed: 433 Knots Altitude 28307 ft
18:24 TOC
18:24 Fuel Weight: 40134 Lb
18:32 Wind:018@035 Knots Heading: 070 Ground Speed: 432 Knots Altitude 36312 ft
18:47 Wind:166@007 Knots Heading: 089 Ground Speed: 453 Knots Altitude 36217 ft
19:02 Wind:197@011 Knots Heading: 091 Ground Speed: 461 Knots Altitude 36125 ft
19:17 Wind:227@028 Knots Heading: 083 Ground Speed: 482 Knots Altitude 36092 ft
19:32 Wind:226@027 Knots Heading: 084 Ground Speed: 481 Knots Altitude 36085 ft
19:47 Wind:240@038 Knots Heading: 063 Ground Speed: 497 Knots Altitude 36108 ft
20:02 Wind:247@040 Knots Heading: 066 Ground Speed: 502 Knots Altitude 36102 ft
20:17 Wind:249@047 Knots Heading: 067 Ground Speed: 499 Knots Altitude 36240 ft
20:32 Wind:257@054 Knots Heading: 075 Ground Speed: 505 Knots Altitude 36286 ft
20:38 TOD
20:38 Fuel Weight: 27783 Lb
20:47 Wind:248@044 Knots Heading: 092 Ground Speed: 398 Knots Altitude 21742 ft
20:55 Flaps:1 at 252 Knots
20:57 Flaps:2 at 194 Knots
20:59 Flaps:3 at 184 Knots
21:02 Wind:314@017 Knots Heading: 043 Ground Speed: 181 Knots Altitude 4412 ft
21:02 Gear Down: 170 Knots
21:02 Flaps:4 at 167 Knots
21:02 Flaps:5 at 166 Knots
21:02 Flaps:6 at 148 Knots
21:02 Flaps:7 at 143 Knots
21:02 Flaps:8 at 138 Knots
21:10 TouchDown:Rate -419 ft/min Speed: 141 Knots
21:10 VATSIM:LEBL 142100Z 31004KT 6000 RA SCT015 BKN045 18/17 Q1020 NOSIG
21:10 Land
21:10 Wind:000@000 Knots
21:10 Heading: 018
21:10 Flight Duration: 03:08
21:10 Landing Weight: 144307 Lbs
21:10 POS N41 17 59 E002 05 25
21:14 Parking brakes on
21:14 Block to Block Duration: 03:20
21:14 Final Fuel: 25432 Lbls
21:14 Spent Fuel: 20370 Lbls
21:14 Flight Length: 1240 NM
21:14 TOD Land Length: 157 NM

Exportar CSV

Powered by Drupal - Modified by Danger4k